createdAt,value
2024-04-18T00:00:46.395Z,242.00
2024-04-18T00:01:47.260Z,242.00
2024-04-18T00:02:48.137Z,243.00
2024-04-18T00:03:49.222Z,243.00
2024-04-18T00:04:49.765Z,244.00
2024-04-18T00:05:50.175Z,243.00
2024-04-18T00:06:51.076Z,241.00
2024-04-18T00:07:51.946Z,240.00
2024-04-18T00:08:52.839Z,239.00
2024-04-18T00:09:53.728Z,239.00
2024-04-18T00:10:54.633Z,240.00
2024-04-18T00:11:55.501Z,239.00
2024-04-18T00:12:56.384Z,239.00
2024-04-18T00:13:57.269Z,240.00
2024-04-18T00:14:58.155Z,241.00
2024-04-18T00:15:59.060Z,241.00
2024-04-18T00:16:59.975Z,238.00
2024-04-18T00:18:01.047Z,237.00
2024-04-18T00:19:01.522Z,237.00
2024-04-18T00:20:02.374Z,238.00
2024-04-18T00:21:03.278Z,240.00
2024-04-18T00:22:04.262Z,243.00
2024-04-18T00:23:04.794Z,244.00
2024-04-18T00:24:05.681Z,244.00
2024-04-18T00:25:06.559Z,243.00
2024-04-18T00:26:07.460Z,243.00
2024-04-18T00:27:08.342Z,247.00
2024-04-18T00:28:09.249Z,248.00
2024-04-18T00:29:10.122Z,249.00
2024-04-18T00:30:11.003Z,246.00
2024-04-18T00:31:11.900Z,246.00
2024-04-18T00:32:12.831Z,244.00
2024-04-18T00:33:13.732Z,246.00
2024-04-18T00:34:14.580Z,248.00
2024-04-18T00:35:15.459Z,246.00
2024-04-18T00:36:16.384Z,245.00
2024-04-18T00:37:17.258Z,243.00
2024-04-18T00:38:18.143Z,238.00
2024-04-18T00:39:19.098Z,239.00
2024-04-18T00:40:19.949Z,239.00
2024-04-18T00:41:20.853Z,239.00
2024-04-18T00:42:21.784Z,242.00
2024-04-18T00:43:22.631Z,243.00
2024-04-18T00:44:23.515Z,243.00
2024-04-18T00:45:24.428Z,244.00
2024-04-18T00:46:25.296Z,245.00
2024-04-18T00:47:26.222Z,243.00
2024-04-18T00:48:27.334Z,243.00
2024-04-18T00:49:27.865Z,244.00
2024-04-18T00:50:28.704Z,244.00
2024-04-18T00:51:29.663Z,245.00
2024-04-18T00:52:30.557Z,245.00
2024-04-18T00:53:31.442Z,245.00
2024-04-18T00:54:32.399Z,245.00
2024-04-18T00:55:33.242Z,244.00
2024-04-18T00:56:34.155Z,241.00
2024-04-18T00:57:35.039Z,242.00
2024-04-18T00:58:35.916Z,241.00
2024-04-18T00:59:36.803Z,243.00
2024-04-18T01:00:37.703Z,241.00
2024-04-18T01:01:38.601Z,243.00
2024-04-18T01:02:39.482Z,241.00
2024-04-18T01:03:40.406Z,241.00
2024-04-18T01:04:41.471Z,239.00
2024-04-18T01:05:41.901Z,239.00
2024-04-18T01:06:42.934Z,240.00
2024-04-18T01:07:43.388Z,242.00
2024-04-18T01:08:44.291Z,246.00
2024-04-18T01:09:45.186Z,243.00
2024-04-18T01:10:46.086Z,244.00
2024-04-18T01:11:47.035Z,243.00
2024-04-18T01:12:47.943Z,241.00
2024-04-18T01:13:48.843Z,241.00
2024-04-18T01:14:49.722Z,243.00
2024-04-18T01:15:50.658Z,245.00
2024-04-18T01:16:51.539Z,244.00
2024-04-18T01:17:52.501Z,240.00
2024-04-18T01:18:53.392Z,240.00
2024-04-18T01:19:54.265Z,239.00
2024-04-18T01:20:55.162Z,241.00
2024-04-18T01:21:57.560Z,245.00
2024-04-18T01:22:56.983Z,244.00
2024-04-18T01:23:57.867Z,244.00
2024-04-18T01:24:58.748Z,243.00
2024-04-18T01:25:59.632Z,242.00
2024-04-18T01:27:00.586Z,242.00
2024-04-18T01:28:01.441Z,243.00
2024-04-18T01:29:02.340Z,243.00
2024-04-18T01:30:03.220Z,242.00
2024-04-18T01:31:04.101Z,241.00
2024-04-18T01:32:04.997Z,241.00
2024-04-18T01:33:05.916Z,239.00
2024-04-18T01:34:06.911Z,238.00
2024-04-18T01:35:07.831Z,238.00
2024-04-18T01:36:08.683Z,235.00
2024-04-18T01:37:09.607Z,235.00
2024-04-18T01:38:10.476Z,237.00
2024-04-18T01:39:11.373Z,235.00
2024-04-18T01:40:12.238Z,231.00
2024-04-18T01:41:13.123Z,228.00
2024-04-18T01:42:14.030Z,229.00
2024-04-18T01:43:14.916Z,229.00
2024-04-18T01:44:15.795Z,228.00
2024-04-18T01:45:16.718Z,231.00
2024-04-18T01:46:17.582Z,233.00
2024-04-18T01:47:18.516Z,237.00
2024-04-18T01:48:19.564Z,240.00
2024-04-18T01:49:19.994Z,237.00
2024-04-18T01:50:20.869Z,238.00
2024-04-18T01:51:21.753Z,237.00
2024-04-18T01:52:22.656Z,238.00
2024-04-18T01:53:23.550Z,239.00
2024-04-18T01:54:24.478Z,244.00
2024-04-18T01:55:25.347Z,243.00
2024-04-18T01:56:26.240Z,242.00
2024-04-18T01:57:27.529Z,242.00
2024-04-18T02:00:16.427Z,247.00
2024-04-18T02:01:17.382Z,251.00
2024-04-18T02:02:18.246Z,250.00
2024-04-18T02:03:19.199Z,250.00
2024-04-18T02:04:20.231Z,246.00
2024-04-18T02:05:20.685Z,243.00
2024-04-18T02:06:21.596Z,244.00
2024-04-18T02:07:22.449Z,245.00
2024-04-18T02:08:23.344Z,248.00
2024-04-18T02:09:24.260Z,247.00
2024-04-18T02:10:25.111Z,247.00
2024-04-18T02:11:26.067Z,246.00
2024-04-18T02:12:27.002Z,243.00
2024-04-18T02:15:13.667Z,238.00
2024-04-18T02:16:14.553Z,243.00
2024-04-18T02:17:15.456Z,247.00
2024-04-18T02:18:16.389Z,249.00
2024-04-18T02:19:17.283Z,252.00
2024-04-18T02:20:18.184Z,250.00
2024-04-18T02:21:19.129Z,252.00
2024-04-18T02:22:19.974Z,253.00
2024-04-18T02:23:20.859Z,251.00
2024-04-18T02:24:21.781Z,250.00
2024-04-18T02:25:22.671Z,250.00
2024-04-18T02:26:23.547Z,253.00
2024-04-18T02:27:24.461Z,251.00
2024-04-18T02:28:25.347Z,250.00
2024-04-18T02:29:26.213Z,256.00
2024-04-18T02:30:27.848Z,257.00
2024-04-18T02:31:27.826Z,260.00
2024-04-18T02:32:28.779Z,258.00
2024-04-18T02:33:29.720Z,255.00
2024-04-18T02:34:30.633Z,259.00
2024-04-18T02:35:31.540Z,258.00
2024-04-18T02:36:32.444Z,258.00
2024-04-18T02:37:33.330Z,257.00
2024-04-18T02:38:34.221Z,258.00
2024-04-18T02:39:36.825Z,256.00
2024-04-18T02:40:35.919Z,257.00
2024-04-18T02:41:36.787Z,251.00
2024-04-18T02:42:37.694Z,251.00
2024-04-18T02:43:38.581Z,250.00
2024-04-18T02:44:39.449Z,254.00
2024-04-18T02:45:40.427Z,255.00
2024-04-18T02:46:41.270Z,255.00
2024-04-18T02:47:42.200Z,252.00
2024-04-18T02:48:43.073Z,252.00
2024-04-18T02:49:43.941Z,251.00
2024-04-18T02:50:44.844Z,249.00
2024-04-18T02:51:45.817Z,250.00
2024-04-18T02:52:46.696Z,253.00
2024-04-18T02:53:47.581Z,252.00
2024-04-18T02:54:48.489Z,255.00
2024-04-18T02:55:49.366Z,252.00
2024-04-18T02:56:50.250Z,252.00
2024-04-18T02:57:51.181Z,249.00
2024-04-18T02:58:52.033Z,249.00
2024-04-18T02:59:52.916Z,248.00
2024-04-18T03:00:54.275Z,251.00
2024-04-18T03:01:54.623Z,252.00
2024-04-18T03:02:55.602Z,254.00
2024-04-18T03:03:56.205Z,251.00
2024-04-18T03:04:56.647Z,253.00
2024-04-18T03:05:57.532Z,252.00
2024-04-18T03:06:58.423Z,250.00
2024-04-18T03:07:59.360Z,249.00
2024-04-18T03:09:00.202Z,252.00
2024-04-18T03:10:01.131Z,248.00
2024-04-18T03:11:02.001Z,247.00
2024-04-18T03:12:02.873Z,249.00
2024-04-18T03:13:03.756Z,250.00
2024-04-18T03:14:04.667Z,248.00
2024-04-18T03:15:05.546Z,246.00
2024-04-18T03:16:06.445Z,248.00
2024-04-18T03:17:07.349Z,248.00
2024-04-18T03:18:08.278Z,247.00
2024-04-18T03:19:09.217Z,248.00
2024-04-18T03:20:10.124Z,251.00
2024-04-18T03:21:11.037Z,249.00
2024-04-18T03:22:11.916Z,252.00
2024-04-18T03:23:12.798Z,252.00
2024-04-18T03:24:13.754Z,250.00
2024-04-18T03:25:14.686Z,251.00
2024-04-18T03:26:15.564Z,250.00
2024-04-18T03:27:16.462Z,255.00
2024-04-18T03:28:17.331Z,252.00
2024-04-18T03:29:18.322Z,253.00
2024-04-18T03:30:19.213Z,255.00
2024-04-18T03:31:20.095Z,256.00
2024-04-18T03:32:21.006Z,257.00
2024-04-18T03:33:22.020Z,257.00
2024-04-18T03:34:22.389Z,254.00
2024-04-18T03:35:23.263Z,258.00
2024-04-18T03:36:24.175Z,254.00
2024-04-18T03:37:25.043Z,251.00
2024-04-18T03:38:25.924Z,249.00
2024-04-18T03:39:26.860Z,249.00
2024-04-18T03:40:27.704Z,250.00
2024-04-18T03:41:28.608Z,249.00
2024-04-18T03:42:29.511Z,249.00
2024-04-18T03:43:30.370Z,249.00
2024-04-18T03:44:31.258Z,249.00
2024-04-18T03:45:32.268Z,254.00
2024-04-18T03:46:33.261Z,256.00
2024-04-18T03:47:33.760Z,258.00
2024-04-18T03:48:34.405Z,257.00
2024-04-18T03:49:34.781Z,258.00
2024-04-18T03:50:35.655Z,256.00
2024-04-18T03:51:36.597Z,260.00
2024-04-18T03:52:37.473Z,263.00
2024-04-18T03:53:38.357Z,261.00
2024-04-18T03:54:55.494Z,258.00
2024-04-18T03:55:40.999Z,260.00
2024-04-18T03:56:40.906Z,257.00
2024-04-18T03:57:41.824Z,257.00
2024-04-18T03:58:42.684Z,254.00
2024-04-18T03:59:43.575Z,252.00
2024-04-18T04:00:44.535Z,253.00
2024-04-18T04:01:45.512Z,253.00
2024-04-18T04:02:46.375Z,257.00
2024-04-18T04:03:47.333Z,257.00
2024-04-18T04:04:48.193Z,256.00
2024-04-18T04:05:49.089Z,256.00
2024-04-18T04:06:50.006Z,255.00
2024-04-18T04:07:50.897Z,258.00
2024-04-18T04:08:51.799Z,257.00
2024-04-18T04:09:52.696Z,259.00
2024-04-18T04:10:53.623Z,261.00
2024-04-18T04:11:54.508Z,261.00
2024-04-18T04:12:55.447Z,263.00
2024-04-18T04:13:59.355Z,264.00
2024-04-18T04:14:57.287Z,261.00
2024-04-18T04:15:58.212Z,257.00
2024-04-18T04:16:59.159Z,257.00
2024-04-18T04:18:00.141Z,258.00
2024-04-18T04:19:00.733Z,258.00
2024-04-18T04:20:01.167Z,259.00
2024-04-18T04:21:02.048Z,257.00
2024-04-18T04:22:02.778Z,256.00
2024-04-18T04:23:03.661Z,259.00
2024-04-18T04:24:04.573Z,257.00
2024-04-18T04:25:05.431Z,257.00
2024-04-18T04:26:06.311Z,256.00
2024-04-18T04:27:07.763Z,258.00
2024-04-18T04:28:08.133Z,257.00
2024-04-18T04:29:09.020Z,259.00
2024-04-18T04:30:09.909Z,261.00
2024-04-18T04:31:10.784Z,262.00
2024-04-18T04:32:11.689Z,263.00
2024-04-18T04:33:12.627Z,266.00
2024-04-18T04:34:13.529Z,268.00
2024-04-18T04:35:14.388Z,268.00
2024-04-18T04:36:15.306Z,267.00
2024-04-18T04:37:16.187Z,267.00
2024-04-18T04:38:17.068Z,270.00
2024-04-18T04:39:17.981Z,270.00
2024-04-18T04:40:18.844Z,268.00
2024-04-18T04:41:19.718Z,270.00
2024-04-18T04:42:20.650Z,266.00
2024-04-18T04:43:21.505Z,267.00
2024-04-18T04:44:22.391Z,267.00
2024-04-18T04:45:23.318Z,266.00
2024-04-18T04:46:24.160Z,267.00
2024-04-18T04:47:25.062Z,265.00
2024-04-18T04:48:26.079Z,263.00
2024-04-18T04:49:26.536Z,261.00
2024-04-18T04:50:27.423Z,261.00
2024-04-18T04:51:28.363Z,259.00
2024-04-18T04:52:29.218Z,258.00
2024-04-18T04:53:30.099Z,255.00
2024-04-18T04:54:30.998Z,255.00
2024-04-18T04:55:31.924Z,258.00
2024-04-18T04:56:32.822Z,261.00
2024-04-18T04:57:33.732Z,260.00
2024-04-18T04:58:34.599Z,258.00
2024-04-18T04:59:35.472Z,257.00
2024-04-18T05:00:36.379Z,256.00
2024-04-18T05:01:37.266Z,256.00
2024-04-18T05:02:40.648Z,256.00
2024-04-18T05:03:39.040Z,258.00
2024-04-18T05:04:39.448Z,260.00
2024-04-18T05:05:40.334Z,257.00
2024-04-18T05:06:41.249Z,258.00
2024-04-18T05:07:42.170Z,257.00
2024-04-18T05:08:43.050Z,258.00
2024-04-18T05:09:43.962Z,258.00
2024-04-18T05:10:44.915Z,257.00
2024-04-18T05:11:45.345Z,256.00
2024-04-18T05:12:46.340Z,258.00
2024-04-18T05:13:47.205Z,258.00
2024-04-18T05:14:48.123Z,259.00
2024-04-18T05:15:49.059Z,259.00
2024-04-18T05:16:49.947Z,257.00
2024-04-18T05:17:50.859Z,257.00
2024-04-18T05:18:51.733Z,258.00
2024-04-18T05:19:52.589Z,261.00
2024-04-18T05:20:53.470Z,258.00
2024-04-18T05:21:54.387Z,257.00
2024-04-18T05:22:55.261Z,259.00
2024-04-18T05:23:56.128Z,259.00
2024-04-18T05:24:57.058Z,257.00
2024-04-18T05:25:57.981Z,256.00
2024-04-18T05:26:58.862Z,253.00
2024-04-18T05:27:59.864Z,252.00
2024-04-18T05:29:00.245Z,251.00
2024-04-18T05:30:01.129Z,249.00
2024-04-18T05:31:02.082Z,251.00
2024-04-18T05:32:02.969Z,253.00
2024-04-18T05:33:04.206Z,257.00
2024-04-18T05:34:04.618Z,252.00
2024-04-18T05:35:05.482Z,250.00
2024-04-18T05:36:06.360Z,249.00
2024-04-18T05:37:10.173Z,249.00
2024-04-18T05:38:08.152Z,247.00
2024-04-18T05:39:09.027Z,246.00
2024-04-18T05:40:09.913Z,249.00
2024-04-18T05:41:10.794Z,251.00
2024-04-18T05:42:11.672Z,251.00
2024-04-18T05:43:12.851Z,248.00
2024-04-18T05:44:13.225Z,247.00
2024-04-18T05:45:14.135Z,246.00
2024-04-18T05:46:14.998Z,246.00
2024-04-18T05:47:15.984Z,244.00
2024-04-18T05:48:16.907Z,244.00
2024-04-18T05:49:17.785Z,263.00
2024-04-18T05:50:18.647Z,243.00
2024-04-18T05:51:19.567Z,240.00
2024-04-18T05:52:20.410Z,241.00
2024-04-18T05:53:21.394Z,244.00
2024-04-18T05:54:22.245Z,247.00
2024-04-18T05:55:23.111Z,243.00
2024-04-18T05:56:24.008Z,246.00
2024-04-18T05:57:24.909Z,246.00
2024-04-18T05:58:25.777Z,249.00
2024-04-18T05:59:26.661Z,251.00
2024-04-18T06:00:27.589Z,252.00
2024-04-18T06:01:28.566Z,251.00
2024-04-18T06:02:29.450Z,250.00
2024-04-18T06:03:30.431Z,247.00
2024-04-18T06:04:31.332Z,245.00
2024-04-18T06:05:32.205Z,246.00
2024-04-18T06:06:33.138Z,246.00
2024-04-18T06:07:33.992Z,243.00
2024-04-18T06:08:34.882Z,244.00
2024-04-18T06:09:35.767Z,248.00
2024-04-18T06:10:36.675Z,251.00
2024-04-18T06:11:37.746Z,253.00
2024-04-18T06:12:38.136Z,251.00
2024-04-18T06:13:39.021Z,254.00
2024-04-18T06:14:39.901Z,255.00
2024-04-18T06:15:40.855Z,253.00
2024-04-18T06:16:41.720Z,251.00
2024-04-18T06:17:42.688Z,255.00
2024-04-18T06:18:43.377Z,262.00
2024-04-18T06:19:44.239Z,259.00
2024-04-18T06:20:45.105Z,258.00
2024-04-18T06:21:45.999Z,260.00
2024-04-18T06:22:46.870Z,257.00
2024-04-18T06:23:48.041Z,251.00
2024-04-18T06:24:49.120Z,249.00
2024-04-18T06:25:49.066Z,248.00
2024-04-18T06:26:49.945Z,247.00
2024-04-18T06:27:50.965Z,249.00
2024-04-18T06:28:51.368Z,249.00
2024-04-18T06:29:52.247Z,252.00
2024-04-18T06:30:53.224Z,253.00
2024-04-18T06:31:53.649Z,253.00
2024-04-18T06:32:54.614Z,254.00
2024-04-18T06:33:55.160Z,253.00
2024-04-18T06:34:55.601Z,254.00
2024-04-18T06:35:56.474Z,256.00
2024-04-18T06:36:57.379Z,254.00
2024-04-18T06:37:58.242Z,253.00
2024-04-18T06:38:59.142Z,252.00
2024-04-18T06:40:00.072Z,254.00
2024-04-18T06:41:00.989Z,252.00
2024-04-18T06:42:01.874Z,251.00
2024-04-18T06:43:02.820Z,258.00
2024-04-18T06:44:03.772Z,263.00
2024-04-18T06:45:04.643Z,260.00
2024-04-18T06:46:05.539Z,257.00
2024-04-18T06:47:06.484Z,255.00
2024-04-18T06:48:07.397Z,256.00
2024-04-18T06:49:08.311Z,256.00
2024-04-18T06:50:09.227Z,254.00
2024-04-18T06:51:10.104Z,251.00
2024-04-18T06:52:10.989Z,247.00
2024-04-18T06:53:11.885Z,248.00
2024-04-18T06:54:12.767Z,253.00
2024-04-18T06:55:13.663Z,253.00
2024-04-18T06:56:14.543Z,254.00
2024-04-18T06:57:15.429Z,252.00
2024-04-18T06:58:16.310Z,253.00
2024-04-18T06:59:17.218Z,256.00
2024-04-18T07:00:18.108Z,256.00
2024-04-18T07:01:18.742Z,251.00
2024-04-18T07:02:19.657Z,254.00
2024-04-18T07:03:20.612Z,254.00
2024-04-18T07:04:21.627Z,259.00
2024-04-18T07:05:22.102Z,256.00
2024-04-18T07:06:23.037Z,256.00
2024-04-18T07:07:23.904Z,254.00
2024-04-18T07:08:24.788Z,253.00
2024-04-18T07:09:25.700Z,250.00
2024-04-18T07:10:26.703Z,246.00
2024-04-18T07:11:27.575Z,248.00
2024-04-18T07:12:28.435Z,253.00
2024-04-18T07:13:29.400Z,251.00
2024-04-18T07:14:30.287Z,252.00
2024-04-18T07:15:31.221Z,252.00
2024-04-18T07:16:32.058Z,253.00
2024-04-18T07:17:33.008Z,248.00
2024-04-18T07:18:34.071Z,249.00
2024-04-18T07:19:34.559Z,249.00
2024-04-18T07:20:35.436Z,249.00
2024-04-18T07:21:36.319Z,248.00
2024-04-18T07:22:37.182Z,248.00
2024-04-18T07:23:38.072Z,247.00
2024-04-18T07:24:39.007Z,247.00
2024-04-18T07:25:39.881Z,254.00
2024-04-18T07:26:40.755Z,248.00
2024-04-18T07:27:41.678Z,247.00
2024-04-18T07:28:42.533Z,245.00
2024-04-18T07:29:43.439Z,246.00
2024-04-18T07:30:44.339Z,244.00
2024-04-18T07:31:45.201Z,246.00
2024-04-18T07:32:46.190Z,244.00
2024-04-18T07:33:46.686Z,246.00
2024-04-18T07:34:47.592Z,245.00
2024-04-18T07:35:48.488Z,249.00
2024-04-18T07:36:50.049Z,247.00
2024-04-18T07:37:50.140Z,249.00
2024-04-18T07:38:51.031Z,249.00
2024-04-18T07:39:51.964Z,243.00
2024-04-18T07:40:52.826Z,245.00
2024-04-18T07:41:53.706Z,244.00
2024-04-18T07:42:54.720Z,244.00
2024-04-18T07:43:55.089Z,241.00
2024-04-18T07:44:55.986Z,241.00
2024-04-18T07:45:56.930Z,244.00
2024-04-18T07:46:57.787Z,242.00
2024-04-18T07:47:58.744Z,243.00
2024-04-18T07:48:59.648Z,244.00
2024-04-18T07:50:00.568Z,246.00
2024-04-18T07:51:01.423Z,248.00
2024-04-18T07:52:09.376Z,251.00
2024-04-18T07:53:09.647Z,248.00
2024-04-18T07:55:13.886Z,249.00
2024-04-18T07:56:14.721Z,260.00
2024-04-18T07:57:15.577Z,263.00
2024-04-18T07:58:16.335Z,266.00
2024-04-18T07:59:16.963Z,267.00
2024-04-18T08:00:18.005Z,269.00
2024-04-18T08:01:19.601Z,269.00
2024-04-18T08:02:20.453Z,274.00
2024-04-18T08:03:21.495Z,275.00
2024-04-18T08:04:44.185Z,265.00
2024-04-18T08:05:23.873Z,267.00
2024-04-18T08:06:24.876Z,265.00
2024-04-18T08:07:24.821Z,261.00
2024-04-18T08:08:26.679Z,259.00
2024-04-18T08:09:27.852Z,263.00
2024-04-18T08:10:33.078Z,260.00
2024-04-18T08:11:53.347Z,273.00
2024-04-18T08:12:29.930Z,268.00
2024-04-18T08:13:30.991Z,271.00
2024-04-18T08:14:32.737Z,272.00
2024-04-18T08:16:30.132Z,271.00
2024-04-18T08:17:30.163Z,272.00
2024-04-18T08:18:30.561Z,270.00
2024-04-18T08:19:31.415Z,273.00
2024-04-18T08:20:32.310Z,278.00
2024-04-18T08:21:33.280Z,280.00
2024-04-18T08:22:34.145Z,279.00
2024-04-18T08:23:35.120Z,279.00
2024-04-18T08:24:36.016Z,282.00
2024-04-18T08:25:36.878Z,285.00
2024-04-18T08:26:37.763Z,285.00
2024-04-18T08:27:38.681Z,283.00
2024-04-18T08:28:39.532Z,281.00
2024-04-18T08:29:40.418Z,284.00
2024-04-18T08:30:41.332Z,278.00
2024-04-18T08:31:42.218Z,277.00
2024-04-18T08:32:43.165Z,276.00
2024-04-18T08:33:53.910Z,270.00
2024-04-18T08:34:47.949Z,279.00
2024-04-18T08:35:45.788Z,283.00
2024-04-18T08:36:46.677Z,280.00
2024-04-18T08:37:47.545Z,285.00
2024-04-18T08:38:48.428Z,285.00
2024-04-18T08:39:49.320Z,272.00
2024-04-18T08:40:50.218Z,276.00
2024-04-18T08:41:51.095Z,277.00
2024-04-18T08:42:51.978Z,276.00
2024-04-18T08:43:57.247Z,274.00
2024-04-18T08:44:53.347Z,279.00
2024-04-18T08:45:54.254Z,274.00
2024-04-18T08:46:55.132Z,274.00
2024-04-18T08:47:56.091Z,275.00
2024-04-18T08:48:57.029Z,278.00
2024-04-18T08:49:57.460Z,280.00
2024-04-18T08:50:58.365Z,283.00
2024-04-18T08:51:59.256Z,279.00
2024-04-18T08:53:00.132Z,275.00
2024-04-18T08:54:01.040Z,273.00
2024-04-18T08:55:01.885Z,266.00
2024-04-18T08:56:02.842Z,267.00
2024-04-18T08:57:03.707Z,270.00
2024-04-18T08:58:04.591Z,264.00
2024-04-18T08:59:05.475Z,264.00
2024-04-18T09:00:06.425Z,263.00
2024-04-18T09:01:07.358Z,259.00
2024-04-18T09:02:08.221Z,249.00
2024-04-18T09:03:09.122Z,249.00
2024-04-18T09:04:10.002Z,262.00
2024-04-18T09:05:10.865Z,272.00
2024-04-18T09:06:11.847Z,273.00
2024-04-18T09:07:12.744Z,270.00
2024-04-18T09:08:13.609Z,282.00
2024-04-18T09:09:14.505Z,275.00
2024-04-18T09:10:15.408Z,291.00
2024-04-18T09:11:16.312Z,294.00
2024-04-18T09:12:17.214Z,284.00
2024-04-18T09:13:18.068Z,288.00
2024-04-18T09:14:18.943Z,282.00
2024-04-18T09:15:19.842Z,286.00
2024-04-18T09:16:20.727Z,289.00
2024-04-18T09:17:21.686Z,288.00
2024-04-18T09:18:22.589Z,288.00
2024-04-18T09:19:23.514Z,287.00
2024-04-18T09:20:24.363Z,283.00
2024-04-18T09:21:25.281Z,275.00
2024-04-18T09:22:26.162Z,269.00
2024-04-18T09:23:27.038Z,258.00
2024-04-18T09:24:27.953Z,265.00
2024-04-18T09:25:28.812Z,267.00
2024-04-18T09:26:29.716Z,272.00
2024-04-18T09:27:30.685Z,297.00
2024-04-18T09:28:31.561Z,292.00
2024-04-18T09:29:32.451Z,291.00
2024-04-18T09:30:33.467Z,300.00
2024-04-18T09:31:38.604Z,264.00
2024-04-18T09:32:35.874Z,285.00
2024-04-18T09:33:36.068Z,287.00
2024-04-18T09:34:36.470Z,275.00
2024-04-18T09:35:37.344Z,274.00
2024-04-18T09:36:38.398Z,310.00
2024-04-18T09:37:39.761Z,313.00
2024-04-18T09:38:39.294Z,300.00
2024-04-18T09:39:40.192Z,295.00
2024-04-18T09:40:41.068Z,321.00
2024-04-18T09:41:41.953Z,300.00
2024-04-18T09:42:42.870Z,300.00
2024-04-18T09:43:43.735Z,306.00
2024-04-18T09:44:44.626Z,314.00
2024-04-18T09:45:45.522Z,302.00
2024-04-18T09:46:46.397Z,310.00
2024-04-18T09:47:47.302Z,312.00
2024-04-18T09:48:48.298Z,299.00
2024-04-18T09:49:50.859Z,295.00
2024-04-18T09:50:49.361Z,295.00
2024-04-18T09:51:50.276Z,295.00
2024-04-18T09:52:51.164Z,296.00
2024-04-18T09:53:52.048Z,295.00
2024-04-18T09:54:52.925Z,298.00
2024-04-18T09:55:53.807Z,296.00
2024-04-18T09:56:54.722Z,281.00
2024-04-18T09:57:55.602Z,298.00
2024-04-18T09:58:56.480Z,278.00
2024-04-18T09:59:57.361Z,290.00
2024-04-18T10:00:58.277Z,292.00
2024-04-18T10:01:59.220Z,301.00
2024-04-18T10:03:00.183Z,282.00
2024-04-18T10:04:00.705Z,298.00
2024-04-18T10:05:01.149Z,284.00
2024-04-18T10:06:02.123Z,245.00
2024-04-18T10:07:03.015Z,239.00
2024-04-18T10:08:03.920Z,278.00
2024-04-18T10:09:04.797Z,298.00
2024-04-18T10:10:05.665Z,255.00
2024-04-18T10:11:06.584Z,275.00
2024-04-18T10:12:07.528Z,274.00
2024-04-18T10:13:08.395Z,283.00
2024-04-18T10:14:09.288Z,296.00
2024-04-18T10:15:10.266Z,244.00
2024-04-18T10:16:11.121Z,288.00
2024-04-18T10:17:12.025Z,278.00
2024-04-18T10:18:13.217Z,315.00
2024-04-18T10:19:13.973Z,347.00
2024-04-18T10:20:14.436Z,272.00
2024-04-18T10:21:15.414Z,302.00
2024-04-18T10:22:23.807Z,300.00
2024-04-18T10:23:17.961Z,335.00
2024-04-18T10:24:17.867Z,327.00
2024-04-18T10:25:18.799Z,301.00
2024-04-18T10:26:19.693Z,295.00
2024-04-18T10:27:20.644Z,296.00
2024-04-18T10:28:21.483Z,293.00
2024-04-18T10:29:22.359Z,280.00
2024-04-18T10:30:23.330Z,325.00
2024-04-18T10:31:24.188Z,320.00
2024-04-18T10:32:25.127Z,278.00
2024-04-18T10:33:26.060Z,297.00
2024-04-18T10:34:26.947Z,319.00
2024-04-18T10:35:27.841Z,286.00
2024-04-18T10:36:28.732Z,325.00
2024-04-18T10:37:29.641Z,295.00
2024-04-18T10:38:30.539Z,297.00
2024-04-18T10:39:31.428Z,338.00
2024-04-18T10:40:32.310Z,316.00
2024-04-18T10:41:33.195Z,328.00
2024-04-18T10:42:34.123Z,316.00
2024-04-18T10:43:34.997Z,295.00
2024-04-18T10:44:35.881Z,287.00
2024-04-18T10:45:36.853Z,282.00
2024-04-18T10:46:37.731Z,301.00
2024-04-18T10:47:38.651Z,277.00
2024-04-18T10:48:39.675Z,256.00
2024-04-18T10:49:40.118Z,318.00
2024-04-18T10:50:41.036Z,279.00
2024-04-18T10:51:41.985Z,305.00
2024-04-18T10:52:42.909Z,279.00
2024-04-18T10:53:43.803Z,329.00
2024-04-18T10:54:44.722Z,327.00
2024-04-18T10:55:45.579Z,321.00
2024-04-18T10:56:46.467Z,324.00
2024-04-18T10:57:47.394Z,280.00
2024-04-18T10:58:48.246Z,337.00
2024-04-18T10:59:49.304Z,302.00
2024-04-18T11:00:49.767Z,291.00
2024-04-18T11:01:50.625Z,300.00
2024-04-18T11:02:51.531Z,300.00
2024-04-18T11:03:52.541Z,329.00
2024-04-18T11:04:52.973Z,425.00
2024-04-18T11:05:53.840Z,311.00
2024-04-18T11:06:54.720Z,308.00
2024-04-18T11:07:55.622Z,357.00
2024-04-18T11:08:56.512Z,298.00
2024-04-18T11:09:57.478Z,302.00
2024-04-18T11:10:58.358Z,310.00
2024-04-18T11:11:59.213Z,284.00
2024-04-18T11:13:00.117Z,301.00
2024-04-18T11:14:00.997Z,292.00
2024-04-18T11:15:01.953Z,305.00
2024-04-18T11:16:02.823Z,303.00
2024-04-18T11:17:03.716Z,334.00
2024-04-18T11:18:04.728Z,306.00
2024-04-18T11:19:05.292Z,352.00
2024-04-18T11:20:06.530Z,301.00
2024-04-18T11:21:06.410Z,296.00
2024-04-18T11:22:07.283Z,342.00
2024-04-18T11:23:14.830Z,315.00
2024-04-18T11:24:09.994Z,315.00
2024-04-18T11:25:09.851Z,293.00
2024-04-18T11:26:10.741Z,301.00
2024-04-18T11:27:11.713Z,302.00
2024-04-18T11:28:12.651Z,315.00
2024-04-18T11:29:13.523Z,288.00
2024-04-18T11:30:14.429Z,356.00
2024-04-18T11:31:15.392Z,303.00
2024-04-18T11:32:16.344Z,292.00
2024-04-18T11:33:17.328Z,292.00
2024-04-18T11:34:18.283Z,297.00
2024-04-18T11:35:19.161Z,302.00
2024-04-18T11:36:20.134Z,313.00
2024-04-18T11:37:21.011Z,301.00
2024-04-18T11:38:21.908Z,304.00
2024-04-18T11:39:22.814Z,301.00
2024-04-18T11:40:23.684Z,296.00
2024-04-18T11:41:24.565Z,308.00
2024-04-18T11:42:25.457Z,317.00
2024-04-18T11:43:26.351Z,305.00
2024-04-18T11:44:28.668Z,318.00
2024-04-18T11:45:28.177Z,318.00
2024-04-18T11:46:29.047Z,312.00
2024-04-18T11:47:30.113Z,348.00
2024-04-18T11:48:30.656Z,297.00
2024-04-18T11:49:31.622Z,281.00
2024-04-18T11:50:32.519Z,316.00
2024-04-18T11:51:33.468Z,313.00
2024-04-18T11:52:34.374Z,299.00
2024-04-18T11:53:35.226Z,295.00
2024-04-18T11:54:36.344Z,297.00
2024-04-18T11:55:36.868Z,310.00
2024-04-18T11:56:37.751Z,318.00
2024-04-18T11:57:38.644Z,304.00
2024-04-18T11:58:39.532Z,306.00
2024-04-18T11:59:40.439Z,309.00
2024-04-18T12:00:41.374Z,307.00
2024-04-18T12:01:42.230Z,307.00
2024-04-18T12:02:43.111Z,303.00
2024-04-18T12:03:44.201Z,295.00
2024-04-18T12:04:44.665Z,294.00
2024-04-18T12:05:45.519Z,301.00
2024-04-18T12:06:46.433Z,308.00
2024-04-18T12:07:47.333Z,294.00
2024-04-18T12:08:52.239Z,278.00
2024-04-18T12:09:50.021Z,313.00
2024-04-18T12:10:49.898Z,344.00
2024-04-18T12:11:50.795Z,370.00
2024-04-18T12:12:51.670Z,307.00
2024-04-18T12:13:52.990Z,322.00
2024-04-18T12:14:53.377Z,309.00
2024-04-18T12:15:54.312Z,291.00
2024-04-18T12:16:55.204Z,306.00
2024-04-18T12:17:56.094Z,302.00
2024-04-18T12:18:56.997Z,320.00
2024-04-18T12:19:57.870Z,309.00
2024-04-18T12:20:58.749Z,318.00
2024-04-18T12:21:59.651Z,322.00
2024-04-18T12:23:00.515Z,281.00
2024-04-18T12:24:01.482Z,321.00
2024-04-18T12:25:02.957Z,383.00
2024-04-18T12:26:03.105Z,304.00
2024-04-18T12:27:04.029Z,297.00
2024-04-18T12:28:04.856Z,305.00
2024-04-18T12:29:05.761Z,334.00
2024-04-18T12:30:06.659Z,307.00
2024-04-18T12:31:07.519Z,290.00
2024-04-18T12:32:08.438Z,268.00
2024-04-18T12:33:09.401Z,313.00
2024-04-18T12:34:10.285Z,303.00
2024-04-18T12:35:11.167Z,282.00
2024-04-18T12:36:12.090Z,317.00
2024-04-18T12:37:12.949Z,326.00
2024-04-18T12:38:13.464Z,315.00
2024-04-18T12:39:14.512Z,317.00
2024-04-18T12:40:14.950Z,285.00
2024-04-18T12:41:15.796Z,292.00
2024-04-18T12:42:16.818Z,292.00
2024-04-18T12:43:17.197Z,307.00
2024-04-18T12:44:18.478Z,266.00
2024-04-18T12:45:18.887Z,314.00